sensor_id;sensor_type;location;lat;lon;timestamp;P1;durP1;ratioP1;P2;durP2;ratioP2
49472;SDS011;67434;50.956;6.918;2023-05-10T00:01:58;4.38;;;3.22;;
49472;SDS011;67434;50.956;6.918;2023-05-10T00:04:23;5.65;;;3.38;;
49472;SDS011;67434;50.956;6.918;2023-05-10T00:06:52;5.00;;;2.92;;
49472;SDS011;67434;50.956;6.918;2023-05-10T00:09:18;5.65;;;3.13;;
49472;SDS011;67434;50.956;6.918;2023-05-10T00:11:44;4.93;;;3.03;;
49472;SDS011;67434;50.956;6.918;2023-05-10T00:14:23;4.43;;;3.10;;
49472;SDS011;67434;50.956;6.918;2023-05-10T00:16:48;5.60;;;3.35;;
49472;SDS011;67434;50.956;6.918;2023-05-10T00:19:14;5.22;;;3.75;;
49472;SDS011;67434;50.956;6.918;2023-05-10T00:21:39;4.05;;;3.15;;
49472;SDS011;67434;50.956;6.918;2023-05-10T00:24:05;6.75;;;3.80;;
49472;SDS011;67434;50.956;6.918;2023-05-10T00:26:30;6.32;;;4.78;;
49472;SDS011;67434;50.956;6.918;2023-05-10T00:28:56;5.40;;;4.03;;
49472;SDS011;67434;50.956;6.918;2023-05-10T00:31:23;6.57;;;4.32;;
49472;SDS011;67434;50.956;6.918;2023-05-10T00:33:58;6.35;;;4.13;;
49472;SDS011;67434;50.956;6.918;2023-05-10T00:36:46;7.20;;;4.35;;
49472;SDS011;67434;50.956;6.918;2023-05-10T00:39:20;8.07;;;4.95;;
49472;SDS011;67434;50.956;6.918;2023-05-10T00:41:57;8.52;;;5.32;;
49472;SDS011;67434;50.956;6.918;2023-05-10T00:44:23;6.30;;;3.97;;
49472;SDS011;67434;50.956;6.918;2023-05-10T00:46:59;7.97;;;5.28;;
49472;SDS011;67434;50.956;6.918;2023-05-10T00:49:25;8.35;;;4.93;;
49472;SDS011;67434;50.956;6.918;2023-05-10T00:51:53;6.75;;;4.78;;
49472;SDS011;67434;50.956;6.918;2023-05-10T00:54:30;8.05;;;5.18;;
49472;SDS011;67434;50.956;6.918;2023-05-10T00:56:58;7.65;;;4.85;;
49472;SDS011;67434;50.956;6.918;2023-05-10T00:59:23;8.52;;;5.35;;
49472;SDS011;67434;50.956;6.918;2023-05-10T01:01:50;8.43;;;5.15;;
49472;SDS011;67434;50.956;6.918;2023-05-10T01:04:17;8.48;;;5.25;;
49472;SDS011;67434;50.956;6.918;2023-05-10T01:06:47;8.40;;;4.75;;
49472;SDS011;67434;50.956;6.918;2023-05-10T01:09:12;7.65;;;4.90;;
49472;SDS011;67434;50.956;6.918;2023-05-10T01:11:44;7.18;;;4.70;;
49472;SDS011;67434;50.956;6.918;2023-05-10T01:14:10;9.88;;;5.65;;
49472;SDS011;67434;50.956;6.918;2023-05-10T01:16:36;6.88;;;4.60;;
49472;SDS011;67434;50.956;6.918;2023-05-10T01:19:12;10.65;;;5.18;;
49472;SDS011;67434;50.956;6.918;2023-05-10T01:27:14;8.65;;;5.45;;
49472;SDS011;67434;50.956;6.918;2023-05-10T01:36:12;7.93;;;5.25;;
49472;SDS011;67434;50.956;6.918;2023-05-10T01:38:50;8.13;;;5.28;;
49472;SDS011;67434;50.956;6.918;2023-05-10T01:44:24;10.98;;;5.30;;
49472;SDS011;67434;50.956;6.918;2023-05-10T01:47:01;7.20;;;4.72;;
49472;SDS011;67434;50.956;6.918;2023-05-10T01:49:32;8.20;;;5.00;;
49472;SDS011;67434;50.956;6.918;2023-05-10T01:52:17;6.57;;;4.45;;
49472;SDS011;67434;50.956;6.918;2023-05-10T01:55:04;9.63;;;6.15;;
49472;SDS011;67434;50.956;6.918;2023-05-10T01:57:33;10.15;;;5.20;;
49472;SDS011;67434;50.956;6.918;2023-05-10T02:00:02;11.18;;;6.35;;
49472;SDS011;67434;50.956;6.918;2023-05-10T02:02:29;8.27;;;5.03;;
49472;SDS011;67434;50.956;6.918;2023-05-10T02:05:01;7.47;;;4.88;;
49472;SDS011;67434;50.956;6.918;2023-05-10T02:07:28;9.80;;;6.28;;
49472;SDS011;67434;50.956;6.918;2023-05-10T02:09:55;9.45;;;5.57;;
49472;SDS011;67434;50.956;6.918;2023-05-10T02:12:22;8.10;;;5.40;;
49472;SDS011;67434;50.956;6.918;2023-05-10T02:14:49;8.55;;;5.47;;
49472;SDS011;67434;50.956;6.918;2023-05-10T02:17:17;8.07;;;5.07;;
49472;SDS011;67434;50.956;6.918;2023-05-10T02:19:44;8.35;;;5.78;;
49472;SDS011;67434;50.956;6.918;2023-05-10T02:22:12;9.55;;;5.03;;
49472;SDS011;67434;50.956;6.918;2023-05-10T02:24:38;8.27;;;5.13;;
49472;SDS011;67434;50.956;6.918;2023-05-10T02:27:05;8.32;;;5.38;;
49472;SDS011;67434;50.956;6.918;2023-05-10T02:29:34;9.55;;;6.00;;
49472;SDS011;67434;50.956;6.918;2023-05-10T02:32:09;8.40;;;5.25;;
49472;SDS011;67434;50.956;6.918;2023-05-10T02:34:47;7.75;;;4.38;;
49472;SDS011;67434;50.956;6.918;2023-05-10T02:37:17;7.35;;;3.95;;
49472;SDS011;67434;50.956;6.918;2023-05-10T02:42:39;6.40;;;3.78;;
49472;SDS011;67434;50.956;6.918;2023-05-10T02:45:15;7.95;;;3.80;;
49472;SDS011;67434;50.956;6.918;2023-05-10T02:47:56;5.07;;;3.60;;
49472;SDS011;67434;50.956;6.918;2023-05-10T02:50:41;7.43;;;4.00;;
49472;SDS011;67434;50.956;6.918;2023-05-10T02:53:36;5.32;;;3.72;;
49472;SDS011;67434;50.956;6.918;2023-05-10T02:56:40;4.80;;;2.80;;
49472;SDS011;67434;50.956;6.918;2023-05-10T02:59:12;6.72;;;4.07;;
49472;SDS011;67434;50.956;6.918;2023-05-10T03:01:39;7.47;;;3.03;;
49472;SDS011;67434;50.956;6.918;2023-05-10T03:04:05;5.28;;;2.88;;
49472;SDS011;67434;50.956;6.918;2023-05-10T03:06:38;5.90;;;2.97;;
49472;SDS011;67434;50.956;6.918;2023-05-10T03:09:10;5.18;;;2.58;;
49472;SDS011;67434;50.956;6.918;2023-05-10T03:12:25;4.15;;;2.95;;
49472;SDS011;67434;50.956;6.918;2023-05-10T03:15:17;6.35;;;2.83;;
49472;SDS011;67434;50.956;6.918;2023-05-10T03:21:01;6.03;;;3.35;;
49472;SDS011;67434;50.956;6.918;2023-05-10T03:23:33;5.22;;;2.90;;
49472;SDS011;67434;50.956;6.918;2023-05-10T03:26:00;4.43;;;2.92;;
49472;SDS011;67434;50.956;6.918;2023-05-10T03:28:26;5.22;;;3.28;;
49472;SDS011;67434;50.956;6.918;2023-05-10T03:31:01;4.97;;;2.83;;
49472;SDS011;67434;50.956;6.918;2023-05-10T03:33:29;5.95;;;3.25;;
49472;SDS011;67434;50.956;6.918;2023-05-10T03:35:55;6.28;;;2.85;;
49472;SDS011;67434;50.956;6.918;2023-05-10T03:38:20;3.47;;;2.53;;
49472;SDS011;67434;50.956;6.918;2023-05-10T03:40:45;6.55;;;3.30;;
49472;SDS011;67434;50.956;6.918;2023-05-10T03:43:11;5.00;;;3.22;;
49472;SDS011;67434;50.956;6.918;2023-05-10T03:45:36;6.03;;;3.45;;
49472;SDS011;67434;50.956;6.918;2023-05-10T03:48:01;6.55;;;3.78;;
49472;SDS011;67434;50.956;6.918;2023-05-10T03:50:27;7.65;;;4.38;;
49472;SDS011;67434;50.956;6.918;2023-05-10T03:52:58;7.30;;;4.07;;
49472;SDS011;67434;50.956;6.918;2023-05-10T03:55:23;7.22;;;4.28;;
49472;SDS011;67434;50.956;6.918;2023-05-10T03:57:56;7.35;;;3.90;;
49472;SDS011;67434;50.956;6.918;2023-05-10T04:00:42;7.00;;;4.35;;
49472;SDS011;67434;50.956;6.918;2023-05-10T04:03:21;7.00;;;4.20;;
49472;SDS011;67434;50.956;6.918;2023-05-10T04:05:47;7.28;;;4.80;;
49472;SDS011;67434;50.956;6.918;2023-05-10T04:08:12;7.93;;;4.75;;
49472;SDS011;67434;50.956;6.918;2023-05-10T04:10:40;9.75;;;5.20;;
49472;SDS011;67434;50.956;6.918;2023-05-10T04:13:06;6.07;;;3.83;;
49472;SDS011;67434;50.956;6.918;2023-05-10T04:15:31;9.10;;;4.47;;
49472;SDS011;67434;50.956;6.918;2023-05-10T04:17:59;11.05;;;5.95;;
49472;SDS011;67434;50.956;6.918;2023-05-10T04:20:28;11.82;;;5.85;;
49472;SDS011;67434;50.956;6.918;2023-05-10T04:22:56;9.02;;;5.65;;
49472;SDS011;67434;50.956;6.918;2023-05-10T04:25:21;14.85;;;6.68;;
49472;SDS011;67434;50.956;6.918;2023-05-10T04:27:47;11.30;;;6.30;;
49472;SDS011;67434;50.956;6.918;2023-05-10T04:30:20;12.43;;;6.85;;
49472;SDS011;67434;50.956;6.918;2023-05-10T04:32:54;10.10;;;6.75;;
49472;SDS011;67434;50.956;6.918;2023-05-10T04:35:20;10.50;;;6.32;;
49472;SDS011;67434;50.956;6.918;2023-05-10T04:37:54;14.10;;;7.28;;
49472;SDS011;67434;50.956;6.918;2023-05-10T04:40:19;11.98;;;6.78;;
49472;SDS011;67434;50.956;6.918;2023-05-10T04:42:48;14.32;;;7.60;;
49472;SDS011;67434;50.956;6.918;2023-05-10T04:45:13;11.43;;;7.28;;
49472;SDS011;67434;50.956;6.918;2023-05-10T04:47:42;13.73;;;7.32;;
49472;SDS011;67434;50.956;6.918;2023-05-10T04:50:07;12.75;;;6.80;;
49472;SDS011;67434;50.956;6.918;2023-05-10T04:52:45;10.63;;;6.65;;
49472;SDS011;67434;50.956;6.918;2023-05-10T04:55:13;11.73;;;7.70;;
49472;SDS011;67434;50.956;6.918;2023-05-10T04:57:38;13.25;;;7.00;;
49472;SDS011;67434;50.956;6.918;2023-05-10T05:00:04;12.82;;;7.20;;
49472;SDS011;67434;50.956;6.918;2023-05-10T05:02:30;12.65;;;7.13;;
49472;SDS011;67434;50.956;6.918;2023-05-10T05:04:56;12.13;;;6.68;;
49472;SDS011;67434;50.956;6.918;2023-05-10T05:07:34;16.08;;;7.22;;
49472;SDS011;67434;50.956;6.918;2023-05-10T05:09:59;16.92;;;7.03;;
49472;SDS011;67434;50.956;6.918;2023-05-10T05:12:25;12.88;;;7.45;;
49472;SDS011;67434;50.956;6.918;2023-05-10T05:14:50;12.27;;;7.13;;
49472;SDS011;67434;50.956;6.918;2023-05-10T05:17:21;10.95;;;6.50;;
49472;SDS011;67434;50.956;6.918;2023-05-10T05:19:50;15.52;;;7.05;;
49472;SDS011;67434;50.956;6.918;2023-05-10T05:22:25;9.95;;;6.75;;
49472;SDS011;67434;50.956;6.918;2023-05-10T05:24:56;17.10;;;7.57;;
49472;SDS011;67434;50.956;6.918;2023-05-10T05:27:28;14.10;;;7.50;;
49472;SDS011;67434;50.956;6.918;2023-05-10T05:29:59;16.17;;;6.95;;
49472;SDS011;67434;50.956;6.918;2023-05-10T05:32:28;11.63;;;6.55;;
49472;SDS011;67434;50.956;6.918;2023-05-10T05:34:54;13.13;;;6.65;;
49472;SDS011;67434;50.956;6.918;2023-05-10T05:37:20;14.15;;;6.90;;
49472;SDS011;67434;50.956;6.918;2023-05-10T05:39:49;12.38;;;7.05;;
49472;SDS011;67434;50.956;6.918;2023-05-10T05:42:15;15.20;;;6.70;;
49472;SDS011;67434;50.956;6.918;2023-05-10T05:44:48;16.33;;;6.80;;
49472;SDS011;67434;50.956;6.918;2023-05-10T05:47:14;13.50;;;6.07;;
49472;SDS011;67434;50.956;6.918;2023-05-10T05:49:39;15.57;;;7.03;;
49472;SDS011;67434;50.956;6.918;2023-05-10T05:52:05;15.00;;;7.32;;
49472;SDS011;67434;50.956;6.918;2023-05-10T05:54:31;17.13;;;6.35;;
49472;SDS011;67434;50.956;6.918;2023-05-10T05:56:57;13.38;;;6.85;;
49472;SDS011;67434;50.956;6.918;2023-05-10T05:59:24;14.90;;;7.30;;
49472;SDS011;67434;50.956;6.918;2023-05-10T06:01:50;12.63;;;6.78;;
49472;SDS011;67434;50.956;6.918;2023-05-10T06:04:15;12.98;;;8.05;;
49472;SDS011;67434;50.956;6.918;2023-05-10T06:06:47;13.13;;;6.22;;
49472;SDS011;67434;50.956;6.918;2023-05-10T06:09:12;13.48;;;6.70;;
49472;SDS011;67434;50.956;6.918;2023-05-10T06:11:38;13.85;;;6.03;;
49472;SDS011;67434;50.956;6.918;2023-05-10T06:14:03;20.38;;;6.22;;
49472;SDS011;67434;50.956;6.918;2023-05-10T06:16:29;12.95;;;6.13;;
49472;SDS011;67434;50.956;6.918;2023-05-10T06:18:55;14.38;;;6.15;;
49472;SDS011;67434;50.956;6.918;2023-05-10T06:21:21;11.85;;;5.68;;
49472;SDS011;67434;50.956;6.918;2023-05-10T06:23:50;16.85;;;6.13;;
49472;SDS011;67434;50.956;6.918;2023-05-10T06:26:16;10.52;;;5.75;;
49472;SDS011;67434;50.956;6.918;2023-05-10T06:28:41;15.98;;;6.75;;
49472;SDS011;67434;50.956;6.918;2023-05-10T06:31:06;10.32;;;5.95;;
49472;SDS011;67434;50.956;6.918;2023-05-10T06:33:32;10.95;;;5.70;;
49472;SDS011;67434;50.956;6.918;2023-05-10T06:35:58;18.40;;;6.90;;
49472;SDS011;67434;50.956;6.918;2023-05-10T06:38:23;14.07;;;6.78;;
49472;SDS011;67434;50.956;6.918;2023-05-10T06:40:49;12.52;;;6.68;;
49472;SDS011;67434;50.956;6.918;2023-05-10T06:43:14;12.00;;;6.40;;
49472;SDS011;67434;50.956;6.918;2023-05-10T06:45:40;11.45;;;5.97;;
49472;SDS011;67434;50.956;6.918;2023-05-10T06:48:06;13.95;;;6.30;;
49472;SDS011;67434;50.956;6.918;2023-05-10T06:50:31;21.08;;;7.57;;
49472;SDS011;67434;50.956;6.918;2023-05-10T06:52:57;14.90;;;7.30;;
49472;SDS011;67434;50.956;6.918;2023-05-10T06:55:23;16.70;;;6.63;;
49472;SDS011;67434;50.956;6.918;2023-05-10T06:57:48;11.25;;;6.60;;
49472;SDS011;67434;50.956;6.918;2023-05-10T07:00:14;12.95;;;7.07;;
49472;SDS011;67434;50.956;6.918;2023-05-10T07:02:39;11.07;;;6.43;;
49472;SDS011;67434;50.956;6.918;2023-05-10T07:05:05;12.88;;;6.03;;
49472;SDS011;67434;50.956;6.918;2023-05-10T07:07:31;13.13;;;8.30;;
49472;SDS011;67434;50.956;6.918;2023-05-10T07:09:59;10.52;;;6.72;;
49472;SDS011;67434;50.956;6.918;2023-05-10T07:12:24;13.90;;;5.95;;
49472;SDS011;67434;50.956;6.918;2023-05-10T07:14:53;11.70;;;6.32;;
49472;SDS011;67434;50.956;6.918;2023-05-10T07:17:18;13.63;;;6.97;;
49472;SDS011;67434;50.956;6.918;2023-05-10T07:19:44;11.43;;;5.95;;
49472;SDS011;67434;50.956;6.918;2023-05-10T07:22:10;11.95;;;6.45;;
49472;SDS011;67434;50.956;6.918;2023-05-10T07:24:36;13.82;;;6.32;;
49472;SDS011;67434;50.956;6.918;2023-05-10T07:27:02;10.20;;;6.53;;
49472;SDS011;67434;50.956;6.918;2023-05-10T07:29:27;18.88;;;7.75;;
49472;SDS011;67434;50.956;6.918;2023-05-10T07:31:53;12.65;;;6.20;;
49472;SDS011;67434;50.956;6.918;2023-05-10T07:34:22;14.98;;;6.75;;
49472;SDS011;67434;50.956;6.918;2023-05-10T07:36:47;13.60;;;6.10;;
49472;SDS011;67434;50.956;6.918;2023-05-10T07:39:13;14.55;;;7.45;;
49472;SDS011;67434;50.956;6.918;2023-05-10T07:41:38;13.05;;;6.25;;
49472;SDS011;67434;50.956;6.918;2023-05-10T07:44:04;12.32;;;5.90;;
49472;SDS011;67434;50.956;6.918;2023-05-10T07:46:31;13.30;;;6.47;;
49472;SDS011;67434;50.956;6.918;2023-05-10T07:48:56;9.15;;;5.43;;
49472;SDS011;67434;50.956;6.918;2023-05-10T07:51:22;11.80;;;5.57;;
49472;SDS011;67434;50.956;6.918;2023-05-10T07:53:47;12.18;;;6.30;;
49472;SDS011;67434;50.956;6.918;2023-05-10T07:56:20;13.98;;;7.47;;
49472;SDS011;67434;50.956;6.918;2023-05-10T07:58:56;12.85;;;7.75;;
49472;SDS011;67434;50.956;6.918;2023-05-10T08:01:21;12.65;;;6.75;;
49472;SDS011;67434;50.956;6.918;2023-05-10T08:03:48;13.02;;;7.78;;
49472;SDS011;67434;50.956;6.918;2023-05-10T08:06:25;11.70;;;6.30;;
49472;SDS011;67434;50.956;6.918;2023-05-10T08:08:55;8.63;;;5.72;;
49472;SDS011;67434;50.956;6.918;2023-05-10T08:11:20;15.80;;;6.55;;
49472;SDS011;67434;50.956;6.918;2023-05-10T08:13:46;11.48;;;6.07;;
49472;SDS011;67434;50.956;6.918;2023-05-10T08:16:13;10.43;;;6.07;;
49472;SDS011;67434;50.956;6.918;2023-05-10T08:18:41;11.90;;;6.68;;
49472;SDS011;67434;50.956;6.918;2023-05-10T08:21:06;9.27;;;5.50;;
49472;SDS011;67434;50.956;6.918;2023-05-10T08:23:32;10.75;;;6.47;;
49472;SDS011;67434;50.956;6.918;2023-05-10T08:25:57;12.45;;;6.13;;
49472;SDS011;67434;50.956;6.918;2023-05-10T08:28:23;10.40;;;5.80;;
49472;SDS011;67434;50.956;6.918;2023-05-10T08:30:49;10.43;;;5.68;;
49472;SDS011;67434;50.956;6.918;2023-05-10T08:33:15;10.30;;;6.25;;
49472;SDS011;67434;50.956;6.918;2023-05-10T08:35:42;11.73;;;6.22;;
49472;SDS011;67434;50.956;6.918;2023-05-10T08:38:11;9.15;;;5.03;;
49472;SDS011;67434;50.956;6.918;2023-05-10T08:40:37;12.13;;;6.43;;
49472;SDS011;67434;50.956;6.918;2023-05-10T08:43:07;11.40;;;4.78;;
49472;SDS011;67434;50.956;6.918;2023-05-10T08:45:38;7.68;;;4.82;;
49472;SDS011;67434;50.956;6.918;2023-05-10T08:48:08;9.65;;;5.40;;
49472;SDS011;67434;50.956;6.918;2023-05-10T08:50:38;7.75;;;4.57;;
49472;SDS011;67434;50.956;6.918;2023-05-10T08:53:06;8.07;;;4.32;;
49472;SDS011;67434;50.956;6.918;2023-05-10T08:55:35;8.10;;;4.32;;
49472;SDS011;67434;50.956;6.918;2023-05-10T08:58:07;6.78;;;3.80;;
49472;SDS011;67434;50.956;6.918;2023-05-10T09:00:34;8.00;;;3.97;;
49472;SDS011;67434;50.956;6.918;2023-05-10T09:03:00;10.43;;;4.47;;
49472;SDS011;67434;50.956;6.918;2023-05-10T09:05:27;9.63;;;4.53;;
49472;SDS011;67434;50.956;6.918;2023-05-10T09:07:59;7.95;;;4.78;;
49472;SDS011;67434;50.956;6.918;2023-05-10T09:10:25;7.50;;;4.07;;
49472;SDS011;67434;50.956;6.918;2023-05-10T09:12:53;7.93;;;4.65;;
49472;SDS011;67434;50.956;6.918;2023-05-10T09:15:27;7.05;;;4.40;;
49472;SDS011;67434;50.956;6.918;2023-05-10T09:17:52;7.53;;;5.03;;
49472;SDS011;67434;50.956;6.918;2023-05-10T09:20:19;7.93;;;4.78;;
49472;SDS011;67434;50.956;6.918;2023-05-10T09:22:45;10.55;;;5.05;;
49472;SDS011;67434;50.956;6.918;2023-05-10T09:25:14;10.25;;;5.75;;
49472;SDS011;67434;50.956;6.918;2023-05-10T09:27:46;8.20;;;5.30;;
49472;SDS011;67434;50.956;6.918;2023-05-10T09:30:17;12.43;;;5.85;;
49472;SDS011;67434;50.956;6.918;2023-05-10T09:32:43;11.73;;;5.93;;
49472;SDS011;67434;50.956;6.918;2023-05-10T09:35:11;13.77;;;5.40;;
49472;SDS011;67434;50.956;6.918;2023-05-10T09:37:44;20.75;;;9.20;;
49472;SDS011;67434;50.956;6.918;2023-05-10T09:40:16;18.27;;;8.70;;
49472;SDS011;67434;50.956;6.918;2023-05-10T09:43:01;12.50;;;6.65;;
49472;SDS011;67434;50.956;6.918;2023-05-10T09:45:29;15.80;;;6.38;;
49472;SDS011;67434;50.956;6.918;2023-05-10T09:47:56;12.45;;;6.55;;
49472;SDS011;67434;50.956;6.918;2023-05-10T09:50:22;10.55;;;5.63;;
49472;SDS011;67434;50.956;6.918;2023-05-10T09:52:52;12.20;;;5.85;;
49472;SDS011;67434;50.956;6.918;2023-05-10T09:55:26;11.98;;;6.53;;
49472;SDS011;67434;50.956;6.918;2023-05-10T09:58:04;14.02;;;7.10;;
49472;SDS011;67434;50.956;6.918;2023-05-10T10:00:35;15.10;;;6.60;;
49472;SDS011;67434;50.956;6.918;2023-05-10T10:03:05;11.55;;;6.15;;
49472;SDS011;67434;50.956;6.918;2023-05-10T10:05:34;15.32;;;6.65;;
49472;SDS011;67434;50.956;6.918;2023-05-10T10:08:04;12.32;;;6.07;;
49472;SDS011;67434;50.956;6.918;2023-05-10T10:10:31;15.05;;;6.68;;
49472;SDS011;67434;50.956;6.918;2023-05-10T10:12:57;14.73;;;6.72;;
49472;SDS011;67434;50.956;6.918;2023-05-10T10:15:23;14.20;;;6.82;;
49472;SDS011;67434;50.956;6.918;2023-05-10T10:17:49;11.93;;;5.82;;
49472;SDS011;67434;50.956;6.918;2023-05-10T10:20:16;11.93;;;6.20;;
49472;SDS011;67434;50.956;6.918;2023-05-10T10:22:44;11.43;;;5.78;;
49472;SDS011;67434;50.956;6.918;2023-05-10T10:25:11;11.27;;;6.18;;
49472;SDS011;67434;50.956;6.918;2023-05-10T10:30:45;11.50;;;5.38;;
49472;SDS011;67434;50.956;6.918;2023-05-10T10:33:17;8.70;;;4.82;;
49472;SDS011;67434;50.956;6.918;2023-05-10T10:35:58;10.57;;;5.20;;
49472;SDS011;67434;50.956;6.918;2023-05-10T10:38:35;9.63;;;4.90;;
49472;SDS011;67434;50.956;6.918;2023-05-10T10:41:22;7.65;;;4.78;;
49472;SDS011;67434;50.956;6.918;2023-05-10T10:47:21;9.35;;;4.45;;
49472;SDS011;67434;50.956;6.918;2023-05-10T10:57:32;12.80;;;4.50;;
49472;SDS011;67434;50.956;6.918;2023-05-10T11:02:50;10.00;;;4.63;;
49472;SDS011;67434;50.956;6.918;2023-05-10T11:13:12;9.07;;;4.50;;
49472;SDS011;67434;50.956;6.918;2023-05-10T11:15:38;9.80;;;4.88;;
49472;SDS011;67434;50.956;6.918;2023-05-10T11:20:49;4.97;;;2.90;;
49472;SDS011;67434;50.956;6.918;2023-05-10T11:23:16;5.82;;;2.67;;
49472;SDS011;67434;50.956;6.918;2023-05-10T11:25:58;7.05;;;3.47;;
49472;SDS011;67434;50.956;6.918;2023-05-10T11:28:25;5.43;;;2.88;;
49472;SDS011;67434;50.956;6.918;2023-05-10T11:30:57;6.25;;;2.70;;
49472;SDS011;67434;50.956;6.918;2023-05-10T11:33:23;5.63;;;2.97;;
49472;SDS011;67434;50.956;6.918;2023-05-10T11:35:57;4.22;;;2.70;;
49472;SDS011;67434;50.956;6.918;2023-05-10T11:38:22;3.97;;;2.88;;
49472;SDS011;67434;50.956;6.918;2023-05-10T11:40:53;5.78;;;2.45;;
49472;SDS011;67434;50.956;6.918;2023-05-10T11:43:19;5.00;;;2.95;;
49472;SDS011;67434;50.956;6.918;2023-05-10T11:45:48;5.07;;;2.45;;
49472;SDS011;67434;50.956;6.918;2023-05-10T11:48:14;3.40;;;2.20;;
49472;SDS011;67434;50.956;6.918;2023-05-10T11:50:39;5.88;;;2.10;;
49472;SDS011;67434;50.956;6.918;2023-05-10T11:53:05;3.53;;;1.80;;
49472;SDS011;67434;50.956;6.918;2023-05-10T11:55:32;2.83;;;1.65;;
49472;SDS011;67434;50.956;6.918;2023-05-10T11:58:00;2.13;;;1.20;;
49472;SDS011;67434;50.956;6.918;2023-05-10T12:00:26;2.08;;;1.35;;
49472;SDS011;67434;50.956;6.918;2023-05-10T12:02:52;2.35;;;1.42;;
49472;SDS011;67434;50.956;6.918;2023-05-10T12:05:17;2.42;;;1.33;;
49472;SDS011;67434;50.956;6.918;2023-05-10T12:07:45;2.00;;;1.25;;
49472;SDS011;67434;50.956;6.918;2023-05-10T12:10:12;2.70;;;1.17;;
49472;SDS011;67434;50.956;6.918;2023-05-10T12:12:43;3.47;;;1.13;;
49472;SDS011;67434;50.956;6.918;2023-05-10T12:15:11;2.38;;;1.40;;
49472;SDS011;67434;50.956;6.918;2023-05-10T12:17:38;2.40;;;1.15;;
49472;SDS011;67434;50.956;6.918;2023-05-10T12:20:15;1.88;;;1.20;;
49472;SDS011;67434;50.956;6.918;2023-05-10T12:22:45;2.28;;;1.10;;
49472;SDS011;67434;50.956;6.918;2023-05-10T12:25:15;2.05;;;1.00;;
49472;SDS011;67434;50.956;6.918;2023-05-10T12:27:46;1.33;;;1.05;;
49472;SDS011;67434;50.956;6.918;2023-05-10T12:30:25;2.80;;;1.30;;
49472;SDS011;67434;50.956;6.918;2023-05-10T12:33:17;2.88;;;1.55;;
49472;SDS011;67434;50.956;6.918;2023-05-10T12:35:45;1.70;;;1.40;;
49472;SDS011;67434;50.956;6.918;2023-05-10T12:38:27;1.80;;;1.00;;
49472;SDS011;67434;50.956;6.918;2023-05-10T12:40:55;1.45;;;1.10;;
49472;SDS011;67434;50.956;6.918;2023-05-10T12:43:21;2.85;;;1.42;;
49472;SDS011;67434;50.956;6.918;2023-05-10T12:46:04;1.55;;;1.20;;
49472;SDS011;67434;50.956;6.918;2023-05-10T12:48:33;1.97;;;1.23;;
49472;SDS011;67434;50.956;6.918;2023-05-10T12:50:59;3.33;;;1.65;;
49472;SDS011;67434;50.956;6.918;2023-05-10T12:53:25;1.55;;;1.00;;
49472;SDS011;67434;50.956;6.918;2023-05-10T12:55:59;1.45;;;0.80;;
49472;SDS011;67434;50.956;6.918;2023-05-10T12:58:25;0.95;;;0.77;;
49472;SDS011;67434;50.956;6.918;2023-05-10T13:00:50;0.85;;;0.60;;
49472;SDS011;67434;50.956;6.918;2023-05-10T13:03:17;1.48;;;1.27;;
49472;SDS011;67434;50.956;6.918;2023-05-10T13:05:45;1.33;;;0.80;;
49472;SDS011;67434;50.956;6.918;2023-05-10T13:08:10;2.00;;;0.85;;
49472;SDS011;67434;50.956;6.918;2023-05-10T13:10:36;1.02;;;0.55;;
49472;SDS011;67434;50.956;6.918;2023-05-10T13:13:01;2.45;;;0.93;;
49472;SDS011;67434;50.956;6.918;2023-05-10T13:15:27;1.13;;;0.60;;
49472;SDS011;67434;50.956;6.918;2023-05-10T13:17:53;0.90;;;0.70;;
49472;SDS011;67434;50.956;6.918;2023-05-10T13:20:19;1.20;;;0.98;;
49472;SDS011;67434;50.956;6.918;2023-05-10T13:22:47;1.60;;;0.80;;
49472;SDS011;67434;50.956;6.918;2023-05-10T13:25:14;1.40;;;0.60;;
49472;SDS011;67434;50.956;6.918;2023-05-10T13:27:40;0.88;;;0.60;;
49472;SDS011;67434;50.956;6.918;2023-05-10T13:30:06;1.42;;;0.65;;
49472;SDS011;67434;50.956;6.918;2023-05-10T13:32:35;1.10;;;0.70;;
49472;SDS011;67434;50.956;6.918;2023-05-10T13:35:00;1.17;;;0.80;;
49472;SDS011;67434;50.956;6.918;2023-05-10T13:37:28;1.55;;;0.70;;
49472;SDS011;67434;50.956;6.918;2023-05-10T13:39:54;1.23;;;0.60;;
49472;SDS011;67434;50.956;6.918;2023-05-10T13:42:19;1.15;;;0.90;;
49472;SDS011;67434;50.956;6.918;2023-05-10T13:44:45;1.10;;;0.63;;
49472;SDS011;67434;50.956;6.918;2023-05-10T13:47:10;1.23;;;0.73;;
49472;SDS011;67434;50.956;6.918;2023-05-10T13:49:36;0.80;;;0.60;;
49472;SDS011;67434;50.956;6.918;2023-05-10T13:52:01;1.42;;;0.70;;
49472;SDS011;67434;50.956;6.918;2023-05-10T13:54:31;2.72;;;0.55;;
49472;SDS011;67434;50.956;6.918;2023-05-10T13:57:00;0.52;;;0.40;;
49472;SDS011;67434;50.956;6.918;2023-05-10T13:59:26;1.20;;;0.50;;
49472;SDS011;67434;50.956;6.918;2023-05-10T14:01:57;2.50;;;0.75;;
49472;SDS011;67434;50.956;6.918;2023-05-10T14:04:23;0.98;;;0.57;;
49472;SDS011;67434;50.956;6.918;2023-05-10T14:06:49;1.88;;;0.60;;
49472;SDS011;67434;50.956;6.918;2023-05-10T14:09:14;0.60;;;0.45;;
49472;SDS011;67434;50.956;6.918;2023-05-10T14:11:42;0.90;;;0.43;;
49472;SDS011;67434;50.956;6.918;2023-05-10T14:14:13;2.88;;;0.50;;
49472;SDS011;67434;50.956;6.918;2023-05-10T14:16:42;0.80;;;0.47;;
49472;SDS011;67434;50.956;6.918;2023-05-10T14:19:09;0.88;;;0.55;;
49472;SDS011;67434;50.956;6.918;2023-05-10T14:21:34;1.02;;;0.50;;
49472;SDS011;67434;50.956;6.918;2023-05-10T14:24:00;0.70;;;0.40;;
49472;SDS011;67434;50.956;6.918;2023-05-10T14:26:25;0.70;;;0.57;;
49472;SDS011;67434;50.956;6.918;2023-05-10T14:28:51;1.77;;;0.60;;
49472;SDS011;67434;50.956;6.918;2023-05-10T14:31:16;0.80;;;0.32;;
49472;SDS011;67434;50.956;6.918;2023-05-10T14:33:44;1.10;;;0.40;;
49472;SDS011;67434;50.956;6.918;2023-05-10T14:36:09;0.75;;;0.30;;
49472;SDS011;67434;50.956;6.918;2023-05-10T14:38:35;1.05;;;0.30;;
49472;SDS011;67434;50.956;6.918;2023-05-10T14:41:01;0.70;;;0.52;;
49472;SDS011;67434;50.956;6.918;2023-05-10T14:43:27;4.63;;;0.57;;
49472;SDS011;67434;50.956;6.918;2023-05-10T14:45:53;1.00;;;0.57;;
49472;SDS011;67434;50.956;6.918;2023-05-10T14:48:18;3.20;;;0.63;;
49472;SDS011;67434;50.956;6.918;2023-05-10T14:50:44;1.48;;;0.40;;
49472;SDS011;67434;50.956;6.918;2023-05-10T14:53:10;1.50;;;0.43;;
49472;SDS011;67434;50.956;6.918;2023-05-10T14:55:35;2.65;;;0.50;;
49472;SDS011;67434;50.956;6.918;2023-05-10T14:58:04;1.20;;;0.65;;
49472;SDS011;67434;50.956;6.918;2023-05-10T15:00:29;1.23;;;0.70;;
49472;SDS011;67434;50.956;6.918;2023-05-10T15:02:55;0.98;;;0.40;;
49472;SDS011;67434;50.956;6.918;2023-05-10T15:05:21;1.02;;;0.50;;
49472;SDS011;67434;50.956;6.918;2023-05-10T15:07:47;2.63;;;0.50;;
49472;SDS011;67434;50.956;6.918;2023-05-10T15:10:12;1.25;;;0.75;;
49472;SDS011;67434;50.956;6.918;2023-05-10T15:12:39;2.05;;;0.98;;
49472;SDS011;67434;50.956;6.918;2023-05-10T15:15:05;2.53;;;0.88;;
49472;SDS011;67434;50.956;6.918;2023-05-10T15:17:31;1.63;;;0.70;;
49472;SDS011;67434;50.956;6.918;2023-05-10T15:19:56;1.85;;;1.20;;
49472;SDS011;67434;50.956;6.918;2023-05-10T15:22:21;2.33;;;1.02;;
49472;SDS011;67434;50.956;6.918;2023-05-10T15:24:47;2.42;;;0.88;;
49472;SDS011;67434;50.956;6.918;2023-05-10T15:27:12;2.75;;;1.10;;
49472;SDS011;67434;50.956;6.918;2023-05-10T15:29:37;1.55;;;0.70;;
49472;SDS011;67434;50.956;6.918;2023-05-10T15:32:03;1.05;;;0.77;;
49472;SDS011;67434;50.956;6.918;2023-05-10T15:34:28;1.85;;;0.88;;
49472;SDS011;67434;50.956;6.918;2023-05-10T15:36:54;2.20;;;0.80;;
49472;SDS011;67434;50.956;6.918;2023-05-10T15:39:19;3.25;;;0.70;;
49472;SDS011;67434;50.956;6.918;2023-05-10T15:41:44;1.30;;;0.70;;